sensor_id;sensor_type;location;lat;lon;timestamp;temperature;humidity
7413;DHT22;3748;48.136;11.538;2022-12-05T00:28:55;1.40;99.90
7413;DHT22;3748;48.136;11.538;2022-12-05T00:31:29;1.60;99.90
7413;DHT22;3748;48.136;11.538;2022-12-05T00:34:04;1.40;99.90
7413;DHT22;3748;48.136;11.538;2022-12-05T00:36:59;1.40;99.90
7413;DHT22;3748;48.136;11.538;2022-12-05T00:39:26;2.30;99.90
7413;DHT22;3748;48.136;11.538;2022-12-05T00:41:53;1.20;99.90
7413;DHT22;3748;48.136;11.538;2022-12-05T00:44:21;1.00;99.90
7413;DHT22;3748;48.136;11.538;2022-12-05T00:46:48;1.60;99.90
7413;DHT22;3748;48.136;11.538;2022-12-05T00:49:15;1.00;99.90
7413;DHT22;3748;48.136;11.538;2022-12-05T00:51:42;1.50;99.90
7413;DHT22;3748;48.136;11.538;2022-12-05T00:54:11;1.20;99.90
7413;DHT22;3748;48.136;11.538;2022-12-05T00:56:38;1.40;99.90
7413;DHT22;3748;48.136;11.538;2022-12-05T00:59:06;1.10;99.90
7413;DHT22;3748;48.136;11.538;2022-12-05T01:01:37;1.00;99.90
7413;DHT22;3748;48.136;11.538;2022-12-05T01:04:05;3.10;99.90
7413;DHT22;3748;48.136;11.538;2022-12-05T01:06:34;1.00;99.90
7413;DHT22;3748;48.136;11.538;2022-12-05T01:09:01;1.10;99.90
7413;DHT22;3748;48.136;11.538;2022-12-05T01:11:28;1.00;99.90
7413;DHT22;3748;48.136;11.538;2022-12-05T01:13:56;0.80;99.90
7413;DHT22;3748;48.136;11.538;2022-12-05T01:16:26;0.90;99.90
7413;DHT22;3748;48.136;11.538;2022-12-05T01:18:55;1.10;99.90
7413;DHT22;3748;48.136;11.538;2022-12-05T01:21:22;0.90;99.90
7413;DHT22;3748;48.136;11.538;2022-12-05T01:23:50;1.50;99.90
7413;DHT22;3748;48.136;11.538;2022-12-05T01:26:20;1.10;99.90
7413;DHT22;3748;48.136;11.538;2022-12-05T01:28:48;0.90;99.90
7413;DHT22;3748;48.136;11.538;2022-12-05T01:31:18;1.80;99.90
7413;DHT22;3748;48.136;11.538;2022-12-05T01:33:46;1.20;99.90
7413;DHT22;3748;48.136;11.538;2022-12-05T01:36:15;1.00;99.90
7413;DHT22;3748;48.136;11.538;2022-12-05T01:38:42;1.00;99.90
7413;DHT22;3748;48.136;11.538;2022-12-05T01:41:13;1.00;99.90
7413;DHT22;3748;48.136;11.538;2022-12-05T01:43:54;1.20;99.90
7413;DHT22;3748;48.136;11.538;2022-12-05T01:46:21;1.20;99.90
7413;DHT22;3748;48.136;11.538;2022-12-05T01:48:49;1.20;99.90
7413;DHT22;3748;48.136;11.538;2022-12-05T01:51:18;1.40;99.90
7413;DHT22;3748;48.136;11.538;2022-12-05T01:53:45;2.00;99.90
7413;DHT22;3748;48.136;11.538;2022-12-05T01:56:13;1.00;99.90
7413;DHT22;3748;48.136;11.538;2022-12-05T01:58:41;2.20;99.90
7413;DHT22;3748;48.136;11.538;2022-12-05T02:01:10;1.10;99.90
7413;DHT22;3748;48.136;11.538;2022-12-05T02:03:39;2.50;99.90
7413;DHT22;3748;48.136;11.538;2022-12-05T02:06:07;1.20;99.90
7413;DHT22;3748;48.136;11.538;2022-12-05T02:08:36;1.10;99.90
7413;DHT22;3748;48.136;11.538;2022-12-05T02:11:06;0.90;99.90
7413;DHT22;3748;48.136;11.538;2022-12-05T02:13:48;1.40;99.90
7413;DHT22;3748;48.136;11.538;2022-12-05T02:16:25;1.20;99.90
7413;DHT22;3748;48.136;11.538;2022-12-05T02:19:05;1.70;99.90
7413;DHT22;3748;48.136;11.538;2022-12-05T02:21:59;1.60;99.90
7413;DHT22;3748;48.136;11.538;2022-12-05T02:27:54;1.20;99.90
7413;DHT22;3748;48.136;11.538;2022-12-05T02:30:33;1.80;99.90
7413;DHT22;3748;48.136;11.538;2022-12-05T02:33:18;1.30;99.90
7413;DHT22;3748;48.136;11.538;2022-12-05T02:35:55;1.20;99.90
7413;DHT22;3748;48.136;11.538;2022-12-05T02:38:28;0.90;99.90
7413;DHT22;3748;48.136;11.538;2022-12-05T02:41:09;1.10;99.90
7413;DHT22;3748;48.136;11.538;2022-12-05T02:43:42;1.00;99.90
7413;DHT22;3748;48.136;11.538;2022-12-05T02:46:17;1.30;99.90
7413;DHT22;3748;48.136;11.538;2022-12-05T02:48:47;0.90;99.90
7413;DHT22;3748;48.136;11.538;2022-12-05T02:51:18;1.00;99.90
7413;DHT22;3748;48.136;11.538;2022-12-05T02:53:47;1.90;99.90
7413;DHT22;3748;48.136;11.538;2022-12-05T02:56:14;0.60;99.90
7413;DHT22;3748;48.136;11.538;2022-12-05T02:58:46;0.40;99.90
7413;DHT22;3748;48.136;11.538;2022-12-05T03:01:17;0.60;99.90
7413;DHT22;3748;48.136;11.538;2022-12-05T03:03:44;0.50;99.90
7413;DHT22;3748;48.136;11.538;2022-12-05T03:06:12;0.60;99.90
7413;DHT22;3748;48.136;11.538;2022-12-05T03:08:43;1.90;99.90
7413;DHT22;3748;48.136;11.538;2022-12-05T03:11:12;0.60;99.90
7413;DHT22;3748;48.136;11.538;2022-12-05T03:13:42;0.80;99.90
7413;DHT22;3748;48.136;11.538;2022-12-05T03:16:13;0.60;99.90
7413;DHT22;3748;48.136;11.538;2022-12-05T03:18:44;0.50;99.90
7413;DHT22;3748;48.136;11.538;2022-12-05T03:21:19;1.00;99.90
7413;DHT22;3748;48.136;11.538;2022-12-05T03:23:50;0.30;99.90
7413;DHT22;3748;48.136;11.538;2022-12-05T03:26:29;0.50;99.90
7413;DHT22;3748;48.136;11.538;2022-12-05T03:29:06;1.50;99.90
7413;DHT22;3748;48.136;11.538;2022-12-05T03:31:39;1.10;99.90
7413;DHT22;3748;48.136;11.538;2022-12-05T03:34:13;1.10;99.90
7413;DHT22;3748;48.136;11.538;2022-12-05T03:36:45;0.80;99.90
7413;DHT22;3748;48.136;11.538;2022-12-05T03:39:19;0.80;99.90
7413;DHT22;3748;48.136;11.538;2022-12-05T03:41:55;0.90;99.90
7413;DHT22;3748;48.136;11.538;2022-12-05T03:44:30;0.80;99.90
7413;DHT22;3748;48.136;11.538;2022-12-05T03:47:03;0.90;99.90
7413;DHT22;3748;48.136;11.538;2022-12-05T03:49:35;1.00;99.90
7413;DHT22;3748;48.136;11.538;2022-12-05T03:52:06;0.90;99.90
7413;DHT22;3748;48.136;11.538;2022-12-05T03:54:37;0.90;99.90
7413;DHT22;3748;48.136;11.538;2022-12-05T03:57:09;1.20;99.90
7413;DHT22;3748;48.136;11.538;2022-12-05T03:59:40;0.90;99.90
7413;DHT22;3748;48.136;11.538;2022-12-05T04:02:14;1.20;99.90
7413;DHT22;3748;48.136;11.538;2022-12-05T04:04:49;1.00;99.90
7413;DHT22;3748;48.136;11.538;2022-12-05T04:07:18;0.90;99.90
7413;DHT22;3748;48.136;11.538;2022-12-05T04:09:51;1.00;99.90
7413;DHT22;3748;48.136;11.538;2022-12-05T04:12:22;1.10;99.90
7413;DHT22;3748;48.136;11.538;2022-12-05T04:14:53;1.10;99.90
7413;DHT22;3748;48.136;11.538;2022-12-05T04:17:28;1.00;99.90
7413;DHT22;3748;48.136;11.538;2022-12-05T04:20:01;1.30;99.90
7413;DHT22;3748;48.136;11.538;2022-12-05T04:22:47;1.40;99.90
7413;DHT22;3748;48.136;11.538;2022-12-05T04:25:15;1.10;99.90
7413;DHT22;3748;48.136;11.538;2022-12-05T04:28:04;1.40;99.90
7413;DHT22;3748;48.136;11.538;2022-12-05T04:30:53;1.10;99.90
7413;DHT22;3748;48.136;11.538;2022-12-05T04:33:36;1.30;99.90
7413;DHT22;3748;48.136;11.538;2022-12-05T04:36:21;2.40;99.90
7413;DHT22;3748;48.136;11.538;2022-12-05T04:38:51;1.20;99.90
7413;DHT22;3748;48.136;11.538;2022-12-05T04:41:22;1.30;99.90
7413;DHT22;3748;48.136;11.538;2022-12-05T04:43:51;1.50;99.90
7413;DHT22;3748;48.136;11.538;2022-12-05T04:46:20;1.40;99.90
7413;DHT22;3748;48.136;11.538;2022-12-05T04:48:50;2.10;99.90
7413;DHT22;3748;48.136;11.538;2022-12-05T04:51:21;1.40;99.90
7413;DHT22;3748;48.136;11.538;2022-12-05T04:53:53;1.30;99.90
7413;DHT22;3748;48.136;11.538;2022-12-05T04:56:26;2.50;99.90
7413;DHT22;3748;48.136;11.538;2022-12-05T04:58:57;1.90;99.90
7413;DHT22;3748;48.136;11.538;2022-12-05T05:01:27;1.30;99.90
7413;DHT22;3748;48.136;11.538;2022-12-05T05:04:06;1.40;99.90
7413;DHT22;3748;48.136;11.538;2022-12-05T05:06:37;1.40;99.90
7413;DHT22;3748;48.136;11.538;2022-12-05T05:09:05;1.40;99.90
7413;DHT22;3748;48.136;11.538;2022-12-05T05:11:38;1.40;99.90
7413;DHT22;3748;48.136;11.538;2022-12-05T05:14:19;1.50;99.90
7413;DHT22;3748;48.136;11.538;2022-12-05T05:16:46;1.50;99.90
7413;DHT22;3748;48.136;11.538;2022-12-05T05:19:13;1.40;99.90
7413;DHT22;3748;48.136;11.538;2022-12-05T05:21:42;3.10;99.90
7413;DHT22;3748;48.136;11.538;2022-12-05T05:24:10;2.30;99.90
7413;DHT22;3748;48.136;11.538;2022-12-05T05:26:39;1.50;99.90
7413;DHT22;3748;48.136;11.538;2022-12-05T05:29:07;1.50;99.90
7413;DHT22;3748;48.136;11.538;2022-12-05T05:31:36;1.50;99.90
7413;DHT22;3748;48.136;11.538;2022-12-05T05:34:04;1.80;99.90
7413;DHT22;3748;48.136;11.538;2022-12-05T05:36:31;1.70;99.90
7413;DHT22;3748;48.136;11.538;2022-12-05T05:39:01;2.20;99.90
7413;DHT22;3748;48.136;11.538;2022-12-05T05:41:30;1.50;99.90
7413;DHT22;3748;48.136;11.538;2022-12-05T05:43:58;1.70;99.90
7413;DHT22;3748;48.136;11.538;2022-12-05T05:46:32;1.70;99.90
7413;DHT22;3748;48.136;11.538;2022-12-05T05:51:43;2.00;99.90
7413;DHT22;3748;48.136;11.538;2022-12-05T05:54:11;1.80;99.90
7413;DHT22;3748;48.136;11.538;2022-12-05T05:56:39;1.80;99.90
7413;DHT22;3748;48.136;11.538;2022-12-05T05:59:05;2.30;99.90
7413;DHT22;3748;48.136;11.538;2022-12-05T06:01:32;1.90;99.90
7413;DHT22;3748;48.136;11.538;2022-12-05T06:03:59;1.90;99.90
7413;DHT22;3748;48.136;11.538;2022-12-05T06:06:26;1.90;99.90
7413;DHT22;3748;48.136;11.538;2022-12-05T06:08:53;2.00;99.90
7413;DHT22;3748;48.136;11.538;2022-12-05T06:11:24;1.90;99.90
7413;DHT22;3748;48.136;11.538;2022-12-05T06:13:52;2.00;99.90
7413;DHT22;3748;48.136;11.538;2022-12-05T06:16:19;2.20;99.90
7413;DHT22;3748;48.136;11.538;2022-12-05T06:18:46;2.30;99.90
7413;DHT22;3748;48.136;11.538;2022-12-05T06:21:14;2.00;99.90
7413;DHT22;3748;48.136;11.538;2022-12-05T06:23:41;2.30;99.90
7413;DHT22;3748;48.136;11.538;2022-12-05T06:26:11;2.30;99.90
7413;DHT22;3748;48.136;11.538;2022-12-05T06:28:40;2.30;99.90
7413;DHT22;3748;48.136;11.538;2022-12-05T06:33:41;2.30;99.90
7413;DHT22;3748;48.136;11.538;2022-12-05T06:41:20;2.30;99.90
7413;DHT22;3748;48.136;11.538;2022-12-05T06:57:34;2.50;99.90
7413;DHT22;3748;48.136;11.538;2022-12-05T07:00:04;2.50;99.90
7413;DHT22;3748;48.136;11.538;2022-12-05T07:02:49;2.50;99.90
7413;DHT22;3748;48.136;11.538;2022-12-05T07:05:17;2.40;99.90
7413;DHT22;3748;48.136;11.538;2022-12-05T07:07:44;2.50;99.90
7413;DHT22;3748;48.136;11.538;2022-12-05T07:10:11;2.50;99.90
7413;DHT22;3748;48.136;11.538;2022-12-05T07:12:40;2.50;99.90
7413;DHT22;3748;48.136;11.538;2022-12-05T07:15:07;2.50;99.90
7413;DHT22;3748;48.136;11.538;2022-12-05T07:17:35;2.40;99.90
7413;DHT22;3748;48.136;11.538;2022-12-05T07:20:04;2.60;99.90
7413;DHT22;3748;48.136;11.538;2022-12-05T07:22:35;2.50;99.90
7413;DHT22;3748;48.136;11.538;2022-12-05T07:25:13;2.50;99.90
7413;DHT22;3748;48.136;11.538;2022-12-05T07:27:42;2.40;99.90
7413;DHT22;3748;48.136;11.538;2022-12-05T07:30:10;2.50;99.90
7413;DHT22;3748;48.136;11.538;2022-12-05T07:32:37;2.50;99.90
7413;DHT22;3748;48.136;11.538;2022-12-05T07:35:04;2.50;99.90
7413;DHT22;3748;48.136;11.538;2022-12-05T07:37:31;2.50;99.90
7413;DHT22;3748;48.136;11.538;2022-12-05T07:39:58;2.60;99.90
7413;DHT22;3748;48.136;11.538;2022-12-05T07:42:27;2.60;99.90
7413;DHT22;3748;48.136;11.538;2022-12-05T07:44:55;2.80;99.90
7413;DHT22;3748;48.136;11.538;2022-12-05T07:47:23;2.70;99.90
7413;DHT22;3748;48.136;11.538;2022-12-05T07:52:26;2.70;99.90
7413;DHT22;3748;48.136;11.538;2022-12-05T07:54:52;2.70;99.90
7413;DHT22;3748;48.136;11.538;2022-12-05T07:57:21;2.70;99.90
7413;DHT22;3748;48.136;11.538;2022-12-05T07:59:48;2.80;99.90
7413;DHT22;3748;48.136;11.538;2022-12-05T08:02:17;2.80;99.90
7413;DHT22;3748;48.136;11.538;2022-12-05T08:04:45;2.80;99.90
7413;DHT22;3748;48.136;11.538;2022-12-05T08:07:12;2.70;99.90
7413;DHT22;3748;48.136;11.538;2022-12-05T08:09:39;2.80;99.90
7413;DHT22;3748;48.136;11.538;2022-12-05T08:12:06;2.80;99.90
7413;DHT22;3748;48.136;11.538;2022-12-05T08:14:33;2.80;99.90
7413;DHT22;3748;48.136;11.538;2022-12-05T08:17:00;2.80;99.90
7413;DHT22;3748;48.136;11.538;2022-12-05T08:19:28;2.80;99.90
7413;DHT22;3748;48.136;11.538;2022-12-05T08:21:55;2.80;99.90
7413;DHT22;3748;48.136;11.538;2022-12-05T08:24:22;2.80;99.90
7413;DHT22;3748;48.136;11.538;2022-12-05T08:26:49;2.80;99.90
7413;DHT22;3748;48.136;11.538;2022-12-05T08:29:20;2.80;99.90
7413;DHT22;3748;48.136;11.538;2022-12-05T08:40:36;3.10;99.90
7413;DHT22;3748;48.136;11.538;2022-12-05T08:43:03;3.30;99.90
7413;DHT22;3748;48.136;11.538;2022-12-05T08:45:30;3.20;99.90
7413;DHT22;3748;48.136;11.538;2022-12-05T08:47:57;3.20;99.90
7413;DHT22;3748;48.136;11.538;2022-12-05T08:50:29;3.10;99.90
7413;DHT22;3748;48.136;11.538;2022-12-05T09:20:15;3.20;99.90
7413;DHT22;3748;48.136;11.538;2022-12-05T09:22:42;3.40;99.90
7413;DHT22;3748;48.136;11.538;2022-12-05T09:25:09;3.40;99.90
7413;DHT22;3748;48.136;11.538;2022-12-05T10:20:48;3.50;99.90
7413;DHT22;3748;48.136;11.538;2022-12-05T10:23:19;3.50;99.90
7413;DHT22;3748;48.136;11.538;2022-12-05T10:25:48;3.70;99.90
7413;DHT22;3748;48.136;11.538;2022-12-05T10:33:49;3.40;99.90
7413;DHT22;3748;48.136;11.538;2022-12-05T10:36:22;3.60;99.90
7413;DHT22;3748;48.136;11.538;2022-12-05T10:38:50;3.80;99.90
7413;DHT22;3748;48.136;11.538;2022-12-05T10:41:17;3.90;99.90
7413;DHT22;3748;48.136;11.538;2022-12-05T10:46:39;3.60;99.90
7413;DHT22;3748;48.136;11.538;2022-12-05T10:49:09;3.50;99.90
7413;DHT22;3748;48.136;11.538;2022-12-05T10:51:45;3.70;99.90
7413;DHT22;3748;48.136;11.538;2022-12-05T10:54:16;3.70;99.90
7413;DHT22;3748;48.136;11.538;2022-12-05T10:56:46;3.80;99.90
7413;DHT22;3748;48.136;11.538;2022-12-05T10:59:15;4.00;99.90
7413;DHT22;3748;48.136;11.538;2022-12-05T11:01:47;4.40;99.90
7413;DHT22;3748;48.136;11.538;2022-12-05T11:04:30;4.20;99.90
7413;DHT22;3748;48.136;11.538;2022-12-05T11:07:00;4.40;99.90
7413;DHT22;3748;48.136;11.538;2022-12-05T11:09:29;4.20;99.90
7413;DHT22;3748;48.136;11.538;2022-12-05T11:12:13;4.10;99.90
7413;DHT22;3748;48.136;11.538;2022-12-05T12:12:11;4.70;99.90
7413;DHT22;3748;48.136;11.538;2022-12-05T12:14:47;4.60;99.90
7413;DHT22;3748;48.136;11.538;2022-12-05T12:17:23;4.70;99.90
7413;DHT22;3748;48.136;11.538;2022-12-05T12:31:50;4.40;99.90
7413;DHT22;3748;48.136;11.538;2022-12-05T12:34:42;4.50;99.90
7413;DHT22;3748;48.136;11.538;2022-12-05T12:37:18;4.50;99.90
7413;DHT22;3748;48.136;11.538;2022-12-05T12:39:51;4.40;99.90
7413;DHT22;3748;48.136;11.538;2022-12-05T12:42:24;4.40;99.90
7413;DHT22;3748;48.136;11.538;2022-12-05T12:45:05;4.40;99.90
7413;DHT22;3748;48.136;11.538;2022-12-05T12:47:51;4.40;99.90
7413;DHT22;3748;48.136;11.538;2022-12-05T12:50:22;4.40;99.90
7413;DHT22;3748;48.136;11.538;2022-12-05T12:56:22;4.40;99.90
7413;DHT22;3748;48.136;11.538;2022-12-05T12:58:56;4.40;99.90
7413;DHT22;3748;48.136;11.538;2022-12-05T13:01:32;4.40;99.90
7413;DHT22;3748;48.136;11.538;2022-12-05T13:04:09;4.40;99.90
7413;DHT22;3748;48.136;11.538;2022-12-05T13:06:45;4.40;99.90
7413;DHT22;3748;48.136;11.538;2022-12-05T13:09:20;4.40;99.90
7413;DHT22;3748;48.136;11.538;2022-12-05T13:11:51;4.40;99.90
7413;DHT22;3748;48.136;11.538;2022-12-05T13:14:25;4.40;99.90
7413;DHT22;3748;48.136;11.538;2022-12-05T13:20:05;4.40;99.90
7413;DHT22;3748;48.136;11.538;2022-12-05T13:22:32;4.40;99.90
7413;DHT22;3748;48.136;11.538;2022-12-05T13:25:02;4.40;99.90
7413;DHT22;3748;48.136;11.538;2022-12-05T13:27:29;4.30;99.90
7413;DHT22;3748;48.136;11.538;2022-12-05T13:30:05;4.80;99.90
7413;DHT22;3748;48.136;11.538;2022-12-05T13:32:34;4.30;99.90
7413;DHT22;3748;48.136;11.538;2022-12-05T13:35:10;4.60;99.90
7413;DHT22;3748;48.136;11.538;2022-12-05T13:37:45;4.20;99.90
7413;DHT22;3748;48.136;11.538;2022-12-05T13:40:32;4.20;99.90
7413;DHT22;3748;48.136;11.538;2022-12-05T13:43:18;4.20;99.90
7413;DHT22;3748;48.136;11.538;2022-12-05T13:45:59;4.20;99.90
7413;DHT22;3748;48.136;11.538;2022-12-05T13:48:27;4.20;99.90
7413;DHT22;3748;48.136;11.538;2022-12-05T13:51:02;4.10;99.90
7413;DHT22;3748;48.136;11.538;2022-12-05T13:53:36;3.90;99.90
7413;DHT22;3748;48.136;11.538;2022-12-05T13:56:06;4.00;99.90
7413;DHT22;3748;48.136;11.538;2022-12-05T13:58:50;4.00;99.90
7413;DHT22;3748;48.136;11.538;2022-12-05T14:01:41;4.30;99.90
7413;DHT22;3748;48.136;11.538;2022-12-05T14:04:23;3.90;99.90
7413;DHT22;3748;48.136;11.538;2022-12-05T14:07:39;4.00;99.90
7413;DHT22;3748;48.136;11.538;2022-12-05T14:10:08;3.90;99.90
7413;DHT22;3748;48.136;11.538;2022-12-05T14:12:50;3.90;99.90
7413;DHT22;3748;48.136;11.538;2022-12-05T14:15:37;3.90;99.90
7413;DHT22;3748;48.136;11.538;2022-12-05T14:18:13;3.90;99.90
7413;DHT22;3748;48.136;11.538;2022-12-05T14:21:10;4.00;99.90
7413;DHT22;3748;48.136;11.538;2022-12-05T14:23:57;4.00;99.90
7413;DHT22;3748;48.136;11.538;2022-12-05T14:26:48;3.90;99.90
7413;DHT22;3748;48.136;11.538;2022-12-05T14:29:33;4.00;99.90
7413;DHT22;3748;48.136;11.538;2022-12-05T14:32:09;4.00;99.90
7413;DHT22;3748;48.136;11.538;2022-12-05T14:34:48;3.90;99.90
7413;DHT22;3748;48.136;11.538;2022-12-05T14:37:25;3.90;99.90
7413;DHT22;3748;48.136;11.538;2022-12-05T14:40:01;3.90;99.90
7413;DHT22;3748;48.136;11.538;2022-12-05T14:42:51;3.90;99.90
7413;DHT22;3748;48.136;11.538;2022-12-05T14:45:32;3.90;99.90
7413;DHT22;3748;48.136;11.538;2022-12-05T14:48:01;4.00;99.90
7413;DHT22;3748;48.136;11.538;2022-12-05T14:50:36;4.40;99.90
7413;DHT22;3748;48.136;11.538;2022-12-05T14:53:38;3.70;99.90
7413;DHT22;3748;48.136;11.538;2022-12-05T14:56:17;3.90;99.90
7413;DHT22;3748;48.136;11.538;2022-12-05T14:59:14;3.80;99.90
7413;DHT22;3748;48.136;11.538;2022-12-05T15:05:33;3.80;99.90
7413;DHT22;3748;48.136;11.538;2022-12-05T15:08:00;3.70;99.90
7413;DHT22;3748;48.136;11.538;2022-12-05T15:10:32;3.70;99.90
7413;DHT22;3748;48.136;11.538;2022-12-05T15:13:02;3.70;99.90
7413;DHT22;3748;48.136;11.538;2022-12-05T15:15:34;3.70;99.90
7413;DHT22;3748;48.136;11.538;2022-12-05T15:18:08;3.70;99.90
7413;DHT22;3748;48.136;11.538;2022-12-05T15:20:48;3.60;99.90
7413;DHT22;3748;48.136;11.538;2022-12-05T15:23:38;3.60;99.90
7413;DHT22;3748;48.136;11.538;2022-12-05T15:26:16;3.50;99.90
7413;DHT22;3748;48.136;11.538;2022-12-05T15:29:00;3.50;99.90
7413;DHT22;3748;48.136;11.538;2022-12-05T15:31:29;3.50;99.90
7413;DHT22;3748;48.136;11.538;2022-12-05T15:34:04;3.50;99.90
7413;DHT22;3748;48.136;11.538;2022-12-05T15:36:35;3.40;99.90
7413;DHT22;3748;48.136;11.538;2022-12-05T15:39:05;3.40;99.90
7413;DHT22;3748;48.136;11.538;2022-12-05T15:41:32;3.50;99.90
7413;DHT22;3748;48.136;11.538;2022-12-05T15:43:59;3.40;99.90
7413;DHT22;3748;48.136;11.538;2022-12-05T15:46:26;3.40;99.90
7413;DHT22;3748;48.136;11.538;2022-12-05T15:48:56;3.40;99.90
7413;DHT22;3748;48.136;11.538;2022-12-05T15:51:31;3.50;99.90
7413;DHT22;3748;48.136;11.538;2022-12-05T15:54:04;3.40;99.90
7413;DHT22;3748;48.136;11.538;2022-12-05T15:56:37;3.50;99.90
7413;DHT22;3748;48.136;11.538;2022-12-05T15:59:43;3.40;99.90
7413;DHT22;3748;48.136;11.538;2022-12-05T16:02:16;3.50;99.90
7413;DHT22;3748;48.136;11.538;2022-12-05T16:04:47;3.40;99.90
7413;DHT22;3748;48.136;11.538;2022-12-05T16:07:15;3.50;99.90
7413;DHT22;3748;48.136;11.538;2022-12-05T16:09:59;3.30;99.90
7413;DHT22;3748;48.136;11.538;2022-12-05T16:12:33;3.30;99.90
7413;DHT22;3748;48.136;11.538;2022-12-05T16:15:09;3.50;99.90
7413;DHT22;3748;48.136;11.538;2022-12-05T16:17:40;3.50;99.90
7413;DHT22;3748;48.136;11.538;2022-12-05T16:20:28;3.50;99.90
7413;DHT22;3748;48.136;11.538;2022-12-05T16:22:59;3.50;99.90
7413;DHT22;3748;48.136;11.538;2022-12-05T16:25:45;3.50;99.90
7413;DHT22;3748;48.136;11.538;2022-12-05T16:28:15;3.50;99.90
7413;DHT22;3748;48.136;11.538;2022-12-05T16:30:55;3.50;99.90
7413;DHT22;3748;48.136;11.538;2022-12-05T16:33:27;3.60;99.90
7413;DHT22;3748;48.136;11.538;2022-12-05T16:35:55;3.50;99.90
7413;DHT22;3748;48.136;11.538;2022-12-05T16:38:23;3.50;99.90
7413;DHT22;3748;48.136;11.538;2022-12-05T16:40:55;3.50;99.90
7413;DHT22;3748;48.136;11.538;2022-12-05T16:43:25;3.60;99.90
7413;DHT22;3748;48.136;11.538;2022-12-05T16:45:55;4.70;99.90
7413;DHT22;3748;48.136;11.538;2022-12-05T16:48:25;3.80;99.90
7413;DHT22;3748;48.136;11.538;2022-12-05T16:51:16;3.60;99.90
7413;DHT22;3748;48.136;11.538;2022-12-05T16:53:57;3.60;99.90
7413;DHT22;3748;48.136;11.538;2022-12-05T16:56:29;3.60;99.90
7413;DHT22;3748;48.136;11.538;2022-12-05T16:58:57;3.40;99.90
7413;DHT22;3748;48.136;11.538;2022-12-05T17:01:27;3.60;99.90
7413;DHT22;3748;48.136;11.538;2022-12-05T17:03:55;3.70;99.90
7413;DHT22;3748;48.136;11.538;2022-12-05T17:06:26;3.70;99.90
7413;DHT22;3748;48.136;11.538;2022-12-05T17:08:56;3.90;99.90
7413;DHT22;3748;48.136;11.538;2022-12-05T17:11:36;4.00;99.90
7413;DHT22;3748;48.136;11.538;2022-12-05T17:14:06;4.10;99.90
7413;DHT22;3748;48.136;11.538;2022-12-05T17:16:35;4.00;99.90
7413;DHT22;3748;48.136;11.538;2022-12-05T17:19:03;3.70;99.90
7413;DHT22;3748;48.136;11.538;2022-12-05T17:21:33;3.80;99.90
7413;DHT22;3748;48.136;11.538;2022-12-05T17:24:00;3.60;99.90
7413;DHT22;3748;48.136;11.538;2022-12-05T17:26:27;3.50;99.90
7413;DHT22;3748;48.136;11.538;2022-12-05T17:28:59;3.50;99.90
7413;DHT22;3748;48.136;11.538;2022-12-05T17:31:26;3.50;99.90
7413;DHT22;3748;48.136;11.538;2022-12-05T17:33:58;3.60;99.90
7413;DHT22;3748;48.136;11.538;2022-12-05T17:36:25;3.60;99.90
7413;DHT22;3748;48.136;11.538;2022-12-05T17:38:52;3.60;99.90
7413;DHT22;3748;48.136;11.538;2022-12-05T17:41:21;3.50;99.90
7413;DHT22;3748;48.136;11.538;2022-12-05T17:43:48;3.20;99.90
7413;DHT22;3748;48.136;11.538;2022-12-05T17:46:19;3.40;99.90
7413;DHT22;3748;48.136;11.538;2022-12-05T17:48:46;3.30;99.90
7413;DHT22;3748;48.136;11.538;2022-12-05T17:51:14;3.40;99.90
7413;DHT22;3748;48.136;11.538;2022-12-05T17:53:54;3.20;99.90
7413;DHT22;3748;48.136;11.538;2022-12-05T17:56:21;3.10;99.90
7413;DHT22;3748;48.136;11.538;2022-12-05T18:10:14;3.40;99.90
7413;DHT22;3748;48.136;11.538;2022-12-05T18:12:42;3.10;99.90
7413;DHT22;3748;48.136;11.538;2022-12-05T18:15:09;3.50;99.90
7413;DHT22;3748;48.136;11.538;2022-12-05T18:17:37;3.20;99.90
7413;DHT22;3748;48.136;11.538;2022-12-05T18:20:07;3.30;99.90
7413;DHT22;3748;48.136;11.538;2022-12-05T18:22:34;3.10;99.90
7413;DHT22;3748;48.136;11.538;2022-12-05T18:25:01;3.00;99.90
7413;DHT22;3748;48.136;11.538;2022-12-05T18:27:30;3.20;99.90
7413;DHT22;3748;48.136;11.538;2022-12-05T18:29:57;3.20;99.90
7413;DHT22;3748;48.136;11.538;2022-12-05T18:32:26;2.90;99.90
7413;DHT22;3748;48.136;11.538;2022-12-05T18:34:53;2.80;99.90
7413;DHT22;3748;48.136;11.538;2022-12-05T18:37:29;2.90;99.90
7413;DHT22;3748;48.136;11.538;2022-12-05T18:40:02;2.90;99.90
7413;DHT22;3748;48.136;11.538;2022-12-05T18:46:02;2.70;99.90
7413;DHT22;3748;48.136;11.538;2022-12-05T18:48:33;2.60;99.90
7413;DHT22;3748;48.136;11.538;2022-12-05T18:51:11;2.50;99.90
7413;DHT22;3748;48.136;11.538;2022-12-05T18:53:40;2.40;99.90
7413;DHT22;3748;48.136;11.538;2022-12-05T18:56:17;2.40;99.90
7413;DHT22;3748;48.136;11.538;2022-12-05T18:58:56;2.40;99.90
7413;DHT22;3748;48.136;11.538;2022-12-05T19:01:25;2.50;99.90
7413;DHT22;3748;48.136;11.538;2022-12-05T19:03:56;2.30;99.90
7413;DHT22;3748;48.136;11.538;2022-12-05T19:06:26;2.20;99.90
7413;DHT22;3748;48.136;11.538;2022-12-05T19:09:05;2.30;99.90
7413;DHT22;3748;48.136;11.538;2022-12-05T19:11:34;2.20;99.90
7413;DHT22;3748;48.136;11.538;2022-12-05T19:14:04;2.10;99.90
7413;DHT22;3748;48.136;11.538;2022-12-05T19:16:32;2.10;99.90
7413;DHT22;3748;48.136;11.538;2022-12-05T19:19:03;2.20;99.90
7413;DHT22;3748;48.136;11.538;2022-12-05T19:21:32;2.30;99.90
7413;DHT22;3748;48.136;11.538;2022-12-05T19:24:15;2.40;99.90
7413;DHT22;3748;48.136;11.538;2022-12-05T19:26:45;2.20;99.90
7413;DHT22;3748;48.136;11.538;2022-12-05T19:29:32;2.20;99.90
7413;DHT22;3748;48.136;11.538;2022-12-05T19:32:04;2.10;99.90
7413;DHT22;3748;48.136;11.538;2022-12-05T19:34:33;2.00;99.90
7413;DHT22;3748;48.136;11.538;2022-12-05T19:37:14;2.40;99.90
7413;DHT22;3748;48.136;11.538;2022-12-05T19:39:42;2.50;99.90
7413;DHT22;3748;48.136;11.538;2022-12-05T19:42:09;2.30;99.90
7413;DHT22;3748;48.136;11.538;2022-12-05T19:44:42;2.30;99.90
7413;DHT22;3748;48.136;11.538;2022-12-05T19:47:11;2.30;99.90
7413;DHT22;3748;48.136;11.538;2022-12-05T19:49:48;2.20;99.90
7413;DHT22;3748;48.136;11.538;2022-12-05T19:52:19;2.10;99.90
7413;DHT22;3748;48.136;11.538;2022-12-05T19:54:48;2.10;99.90
7413;DHT22;3748;48.136;11.538;2022-12-05T19:57:19;2.20;99.90
7413;DHT22;3748;48.136;11.538;2022-12-05T19:59:50;2.20;99.90
7413;DHT22;3748;48.136;11.538;2022-12-05T20:02:21;2.20;99.90
7413;DHT22;3748;48.136;11.538;2022-12-05T20:04:52;2.30;99.90
7413;DHT22;3748;48.136;11.538;2022-12-05T20:07:27;2.30;99.90
7413;DHT22;3748;48.136;11.538;2022-12-05T20:10:04;2.30;99.90
7413;DHT22;3748;48.136;11.538;2022-12-05T20:12:48;2.30;99.90
7413;DHT22;3748;48.136;11.538;2022-12-05T20:15:34;2.40;99.90
7413;DHT22;3748;48.136;11.538;2022-12-05T20:18:01;2.40;99.90
7413;DHT22;3748;48.136;11.538;2022-12-05T20:20:29;2.20;99.90
7413;DHT22;3748;48.136;11.538;2022-12-05T20:22:56;2.40;99.90
7413;DHT22;3748;48.136;11.538;2022-12-05T20:25:24;2.40;99.90
7413;DHT22;3748;48.136;11.538;2022-12-05T20:27:51;2.60;99.90
7413;DHT22;3748;48.136;11.538;2022-12-05T20:30:19;2.50;99.90
7413;DHT22;3748;48.136;11.538;2022-12-05T20:32:47;2.40;99.90
7413;DHT22;3748;48.136;11.538;2022-12-05T20:35:16;2.60;99.90
7413;DHT22;3748;48.136;11.538;2022-12-05T20:38:01;2.30;99.90
7413;DHT22;3748;48.136;11.538;2022-12-05T20:40:29;2.40;99.90
7413;DHT22;3748;48.136;11.538;2022-12-05T20:42:56;2.50;99.90
7413;DHT22;3748;48.136;11.538;2022-12-05T20:45:24;2.40;99.90